Creston, IA

3:45 AM CDT on August 20, 2017 (GMT -0500)
Creston Municipal | | Change Station
Active Advisory: Special Statement

Elev 1293 ft 41.02 °N, 94.36 °W | Updated 10 minutes ago

Mostly Cloudy
Mostly Cloudy
73 °F
Feels Like 73 °F
N
7
Wind Variable Wind from SSE

Today
High -- | Low -- °F
--% Chance of Precip.
Yesterday
High -- | Low -- °F
Precip. -- in
Pressure 29.92 in
Visibility 10.0 miles
Clouds Mostly Cloudy 4900 ft
Mostly Cloudy 6000 ft
Mostly Cloudy 7500 ft
Dew Point 68 °F
Humidity 83%
Rainfall 0.00 in
Snow Depth Not available.
6:32 AM 8:08 PM
Waning Crescent, 3% visible
METAR KCSQ 200835Z AUTO 16006KT 10SM BKN049 BKN060 BKN075 23/20 A2992 RMK AO2
Pressure 29.92 in
Visibility 10.0 miles
Clouds Mostly Cloudy 4900 ft
Mostly Cloudy 6000 ft
Mostly Cloudy 7500 ft
Dew Point 68 °F
Humidity 83%
Rainfall 0.00 in
Snow Depth Not available.
6:32 AM 8:08 PM
Waning Crescent, 3% visible
METAR KCSQ 200835Z AUTO 16006KT 10SM BKN049 BKN060 BKN075 23/20 A2992 RMK AO2

Get Your Daily Forecast Email!

Thanks for signing up!

Be on the lookout for a verification email in your inbox.

You'll start receiving severe weather alerts in your inbox..

×

10-Day Weather Forecast

Almanac

Astronomy

Aug. 20, 2017 Rise Set
Actual Time
Civil Twilight
Nautical Twilight
Astronomical Twilight
Moon
Length of Visible Light
Length of Day
Tomorrow will be .
, % of the Moon is Illuminated

Today's Extremes

State Highs State Lows

Community

WunderPhotos

Category 6

Welcome to Category 6. This is the collective home for Weather Underground's featured writeups by Dr. Jeff Masters (right), Bob Henson (left), Chris Burt, and other regular contributors.

Nearby

Air Quality

  Air Quality AQ Index Pollutant
Not available.

Snow Depth

Station Depth Elevation

Earthquake Activity

City Distance Mag. Time & Date
Minimum magnitude displayed is 2.5.

Coastal Water Temperatures

Place Temperature

Stations

Nearby Weather Stations

Station Location Temp. Windchill Dew Point Humidity Wind Precip. Elev Updated Type
                   

Watches & Warnings

Special Statement
Issued: 3:27 AM CDT Aug. 20, 2017 – National Weather Service

... Strong wind gusts possible with storms...

Thunderstorms are slowly moving into southwest Iowa. These storms
did have wind gusts between 40 and 50 mph with them in Nebraska
and far southwest Iowa. Although they are a little weaker, wind
gusts to 40 mph are still possible with these storms. Loose
objects in yards may get blown around. The storms are moving to
the east at 25 mph and will continue to weaken as they move across
southern Iowa.


Fab